Time;durP1;ratioP1;P1;durP2;ratioP2;P2;SDS_P1;SDS_P2;PMS_P1;PMS_P2;Temp;Humidity;BMP_temperature;BMP_pressure;BME280_temperature;BME280_humidity;BME280_pressure;Samples;Min_cycle;Max_cycle;Signal;HPM_P1;HPM_P2
2023/01/19 00:01:32;;;;;;;11.45;6.70;;;;;;;1.55;100.00;99602.22;4934168;28;20389;-82
2023/01/19 00:04:00;;;;;;;9.00;6.13;;;;;;;1.54;100.00;99606.56;4947450;28;20055;-81
2023/01/19 00:06:27;;;;;;;12.43;7.30;;;;;;;1.53;100.00;99612.59;4948203;29;20074;-82
2023/01/19 00:08:55;;;;;;;10.25;6.40;;;;;;;1.54;100.00;99609.16;4953518;28;20069;-82
2023/01/19 00:11:22;;;;;;;11.57;6.97;;;;;;;1.55;100.00;99607.41;4972766;28;20046;-81
2023/01/19 00:13:50;;;;;;;8.15;6.55;;;;;;;1.59;100.00;99609.25;4973648;28;20051;-81
2023/01/19 00:16:21;;;;;;;11.20;5.88;;;;;;;1.61;100.00;99611.84;4975520;28;20520;-81
2023/01/19 00:18:51;;;;;;;8.02;5.18;;;;;;;1.60;100.00;99615.31;4927985;28;20046;-81
2023/01/19 00:21:20;;;;;;;5.43;4.90;;;;;;;1.57;100.00;99610.94;4933791;28;20049;-81
2023/01/19 00:23:49;;;;;;;8.00;5.90;;;;;;;1.55;100.00;99613.50;4972504;28;20298;-81
2023/01/19 00:26:17;;;;;;;9.02;5.07;;;;;;;1.49;100.00;99615.09;4954248;29;20047;-82
2023/01/19 00:28:45;;;;;;;8.77;4.53;;;;;;;1.45;100.00;99608.09;4958245;28;20055;-82
2023/01/19 00:31:12;;;;;;;6.30;4.25;;;;;;;1.40;100.00;99610.63;4922578;29;20047;-82
2023/01/19 00:33:39;;;;;;;5.28;4.05;;;;;;;1.36;100.00;99617.47;4939797;28;20053;-80
2023/01/19 00:36:07;;;;;;;5.97;4.80;;;;;;;1.33;100.00;99619.13;4959962;28;20080;-80
2023/01/19 00:38:34;;;;;;;8.13;5.15;;;;;;;1.29;100.00;99623.34;4951611;28;20042;-80
2023/01/19 00:41:05;;;;;;;7.65;4.55;;;;;;;1.27;100.00;99626.78;4941927;28;20054;-81
2023/01/19 00:43:33;;;;;;;6.22;4.78;;;;;;;1.24;100.00;99627.56;4923888;28;20051;-80
2023/01/19 00:46:01;;;;;;;6.95;5.07;;;;;;;1.24;100.00;99626.69;4957412;28;20050;-81
2023/01/19 00:48:30;;;;;;;6.85;5.20;;;;;;;1.25;100.00;99638.81;4924957;28;20054;-80
2023/01/19 00:50:58;;;;;;;5.20;4.60;;;;;;;1.25;100.00;99629.34;4915736;28;21429;-81
2023/01/19 00:53:31;;;;;;;5.25;4.63;;;;;;;1.25;100.00;99638.81;4954077;29;20062;-80
2023/01/19 00:55:58;;;;;;;6.70;4.93;;;;;;;1.27;100.00;99635.44;4948943;28;20046;-80
2023/01/19 00:58:29;;;;;;;7.93;4.60;;;;;;;1.27;100.00;99637.16;4938743;28;20054;-80
2023/01/19 01:01:02;;;;;;;11.35;4.72;;;;;;;1.26;100.00;99644.03;4922640;29;20050;-81
2023/01/19 01:03:29;;;;;;;7.00;5.70;;;;;;;1.26;100.00;99640.59;4915118;28;20051;-81
2023/01/19 01:05:57;;;;;;;7.93;4.28;;;;;;;1.25;100.00;99644.91;4949068;28;20051;-80
2023/01/19 01:08:24;;;;;;;11.38;4.88;;;;;;;1.26;100.00;99643.19;4965173;28;20051;-80
2023/01/19 01:10:54;;;;;;;7.22;5.20;;;;;;;1.27;100.00;99648.41;4937791;28;20053;-80
2023/01/19 01:13:21;;;;;;;8.25;4.97;;;;;;;1.27;100.00;99645.81;4937863;28;20054;-82
2023/01/19 01:15:54;;;;;;;4.68;4.28;;;;;;;1.28;100.00;99644.09;4933169;29;20048;-82
2023/01/19 01:18:23;;;;;;;10.02;4.57;;;;;;;1.29;100.00;99651.03;4898918;29;20063;-82
2023/01/19 01:20:50;;;;;;;8.80;4.78;;;;;;;1.29;100.00;99644.13;4911289;28;20414;-81
2023/01/19 01:23:21;;;;;;;7.75;4.15;;;;;;;1.30;100.00;99645.84;4955664;28;20407;-81
2023/01/19 01:25:51;;;;;;;5.33;3.40;;;;;;;1.33;100.00;99653.72;4953770;28;20057;-81
2023/01/19 01:28:18;;;;;;;5.30;3.83;;;;;;;1.35;100.00;99645.97;4971572;28;20054;-82
2023/01/19 01:30:46;;;;;;;4.82;3.63;;;;;;;1.37;100.00;99652.06;4921601;28;20059;-82
2023/01/19 01:33:14;;;;;;;7.78;3.35;;;;;;;1.38;100.00;99648.66;4924796;28;20074;-82
2023/01/19 01:36:01;;;;;;;5.00;3.35;;;;;;;1.42;100.00;99662.53;4932422;28;20062;-81
2023/01/19 01:38:28;;;;;;;10.80;3.58;;;;;;;1.43;100.00;99654.78;4952570;29;20039;-81
2023/01/19 01:40:56;;;;;;;7.45;2.90;;;;;;;1.46;100.00;99660.06;4941709;29;20066;-82
2023/01/19 01:43:46;;;;;;;7.82;2.40;;;;;;;1.50;100.00;99643.69;4952257;28;20055;-81
2023/01/19 01:46:15;;;;;;;10.23;2.95;;;;;;;1.54;100.00;99653.28;4964042;28;20047;-82
2023/01/19 01:48:49;;;;;;;3.55;2.20;;;;;;;1.59;100.00;99655.09;4930014;28;20408;-81
2023/01/19 01:51:24;;;;;;;4.22;2.05;;;;;;;1.61;100.00;99643.91;4971222;28;20050;-81
2023/01/19 01:54:02;;;;;;;1.88;1.60;;;;;;;1.64;100.00;99656.94;4942438;28;20051;-80
2023/01/19 01:56:45;;;;;;;4.18;1.80;;;;;;;1.67;100.00;99656.16;4947649;28;20061;-81
2023/01/19 01:59:27;;;;;;;5.05;2.05;;;;;;;1.68;100.00;99665.66;4947032;28;20403;-80
2023/01/19 02:04:55;;;;;;;3.50;1.60;;;;;;;1.72;100.00;99667.47;4941563;28;20051;-80
2023/01/19 02:13:20;;;;;;;4.45;2.08;;;;;;;1.77;100.00;99676.25;4956713;28;20059;-82
2023/01/19 02:15:56;;;;;;;5.05;2.58;;;;;;;1.75;100.00;99664.97;4951655;28;20523;-82
2023/01/19 02:18:27;;;;;;;2.58;2.38;;;;;;;1.74;100.00;99668.41;4952664;29;20051;-82
2023/01/19 02:21:17;;;;;;;4.50;2.83;;;;;;;1.71;100.00;99666.63;4927582;28;20049;-82
2023/01/19 02:23:48;;;;;;;3.65;3.35;;;;;;;1.70;100.00;99674.38;4948228;28;20040;-82
2023/01/19 02:26:30;;;;;;;4.72;3.00;;;;;;;1.66;100.00;99673.44;4941870;28;20057;-82
2023/01/19 02:29:25;;;;;;;6.72;4.00;;;;;;;1.66;100.00;99675.16;4955835;28;20054;-82
2023/01/19 02:31:54;;;;;;;4.47;3.58;;;;;;;1.66;100.00;99672.56;4935179;29;20054;-81
2023/01/19 02:34:22;;;;;;;8.32;4.07;;;;;;;1.65;100.00;99681.22;4945831;29;20044;-81
2023/01/19 02:36:54;;;;;;;7.13;3.90;;;;;;;1.65;100.00;99691.59;4883832;29;20892;-80
2023/01/19 02:39:30;;;;;;;5.03;3.92;;;;;;;1.64;100.00;99688.09;4932909;28;20043;-81
2023/01/19 02:42:02;;;;;;;4.47;4.07;;;;;;;1.64;100.00;99687.22;4930859;29;20050;-80
2023/01/19 02:44:32;;;;;;;4.60;4.20;;;;;;;1.63;100.00;99688.09;4934019;29;20050;-81
2023/01/19 02:46:59;;;;;;;4.85;3.83;;;;;;;1.63;100.00;99695.88;4932423;29;20043;-81
2023/01/19 02:49:28;;;;;;;7.60;4.15;;;;;;;1.61;100.00;99703.66;4927300;29;20048;-80
2023/01/19 02:51:57;;;;;;;6.20;4.50;;;;;;;1.59;100.00;99689.75;4925710;29;20052;-80
2023/01/19 02:54:35;;;;;;;6.65;4.80;;;;;;;1.59;100.00;99697.53;4898486;29;20047;-82
2023/01/19 02:57:30;;;;;;;5.45;4.45;;;;;;;1.58;100.00;99702.69;4929524;29;20043;-81
2023/01/19 03:00:06;;;;;;;6.28;4.93;;;;;;;1.56;100.00;99702.66;4931390;29;20056;-82
2023/01/19 03:02:52;;;;;;;6.88;5.35;;;;;;;1.55;100.00;99709.59;4933576;29;20502;-81
2023/01/19 03:05:32;;;;;;;8.70;5.43;;;;;;;1.54;100.00;99696.56;4902690;29;20052;-80
2023/01/19 03:08:09;;;;;;;9.77;5.05;;;;;;;1.55;100.00;99708.69;4931446;29;20047;-82
2023/01/19 03:10:57;;;;;;;7.90;5.10;;;;;;;1.53;100.00;99711.28;4939156;28;20035;-80
2023/01/19 03:13:30;;;;;;;7.30;4.78;;;;;;;1.53;100.00;99713.88;4944097;29;20055;-82
2023/01/19 03:16:22;;;;;;;5.35;4.50;;;;;;;1.51;100.00;99719.84;4935227;29;20054;-81
2023/01/19 03:18:57;;;;;;;5.60;4.80;;;;;;;1.52;100.00;99721.63;4932199;29;20047;-80
2023/01/19 03:21:28;;;;;;;5.60;5.00;;;;;;;1.51;100.00;99718.16;4905168;29;20438;-82
2023/01/19 03:24:01;;;;;;;8.30;4.63;;;;;;;1.51;100.00;99704.28;4950885;29;20058;-82
2023/01/19 03:26:33;;;;;;;7.28;4.97;;;;;;;1.50;100.00;99703.41;4942944;28;20040;-82
2023/01/19 03:29:02;;;;;;;5.18;4.68;;;;;;;1.47;100.00;99700.72;4936986;28;20497;-81
2023/01/19 03:31:32;;;;;;;7.82;4.85;;;;;;;1.46;100.00;99701.59;4945758;28;20063;-82
2023/01/19 03:34:04;;;;;;;6.13;4.05;;;;;;;1.46;100.00;99704.19;4922711;29;20069;-80
2023/01/19 03:36:42;;;;;;;6.45;4.53;;;;;;;1.43;100.00;99711.91;4902463;29;20051;-82
2023/01/19 03:39:13;;;;;;;5.07;4.05;;;;;;;1.40;100.00;99714.44;4948802;29;20063;-82
2023/01/19 03:41:43;;;;;;;4.30;3.95;;;;;;;1.40;100.00;99711.84;4938980;28;20055;-81
2023/01/19 03:44:13;;;;;;;5.43;4.43;;;;;;;1.38;100.00;99731.72;4944600;29;20054;-80
2023/01/19 03:46:41;;;;;;;5.40;4.20;;;;;;;1.36;100.00;99730.78;4958913;28;20432;-80
2023/01/19 03:49:08;;;;;;;4.57;4.18;;;;;;;1.35;100.00;99727.31;4931035;29;20516;-81
2023/01/19 03:51:37;;;;;;;5.95;4.47;;;;;;;1.33;100.00;99721.22;4925652;29;20058;-80
2023/01/19 03:54:06;;;;;;;4.93;4.38;;;;;;;1.32;100.00;99731.56;4924091;29;20048;-80
2023/01/19 03:56:33;;;;;;;10.45;4.80;;;;;;;1.26;100.00;99740.06;4938712;28;20525;-81
2023/01/19 03:59:01;;;;;;;6.70;4.43;;;;;;;1.25;100.00;99748.72;4949162;29;20043;-80
2023/01/19 04:01:28;;;;;;;7.30;4.22;;;;;;;1.24;100.00;99744.34;4947807;28;20078;-80
2023/01/19 04:03:56;;;;;;;4.53;4.13;;;;;;;1.24;100.00;99743.50;4927255;29;20065;-80
2023/01/19 04:06:24;;;;;;;5.22;4.72;;;;;;;1.24;100.00;99748.69;4923038;29;20424;-80
2023/01/19 04:08:51;;;;;;;5.78;5.00;;;;;;;1.24;100.00;99756.47;4914713;28;20742;-80
2023/01/19 04:11:18;;;;;;;6.93;5.55;;;;;;;1.25;100.00;99758.19;4923030;29;20051;-80
2023/01/19 04:13:45;;;;;;;8.10;5.43;;;;;;;1.26;100.00;99757.38;4933090;29;20048;-80
2023/01/19 04:16:13;;;;;;;6.25;5.07;;;;;;;1.28;100.00;99761.75;4946260;29;20035;-80
2023/01/19 04:18:41;;;;;;;12.57;7.03;;;;;;;1.29;100.00;99760.06;4948918;29;20055;-80
2023/01/19 04:21:08;;;;;;;9.30;5.75;;;;;;;1.30;100.00;99762.66;4918751;29;20051;-80
2023/01/19 04:23:35;;;;;;;9.40;5.88;;;;;;;1.32;100.00;99763.59;4933930;29;20051;-80
2023/01/19 04:26:06;;;;;;;7.75;5.90;;;;;;;1.34;100.00;99753.22;4904932;29;20074;-80
2023/01/19 04:28:35;;;;;;;6.68;4.85;;;;;;;1.33;100.00;99757.53;4948252;28;20501;-80
2023/01/19 04:31:05;;;;;;;7.88;5.38;;;;;;;1.34;100.00;99758.41;4957691;28;20050;-80
2023/01/19 04:33:33;;;;;;;9.38;6.22;;;;;;;1.33;100.00;99757.53;4930630;29;20043;-80
2023/01/19 04:36:01;;;;;;;8.90;6.43;;;;;;;1.33;100.00;99751.50;4936890;28;20054;-80
2023/01/19 04:38:28;;;;;;;11.10;6.95;;;;;;;1.32;100.00;99752.31;4945782;28;20050;-80
2023/01/19 04:40:56;;;;;;;9.20;6.43;;;;;;;1.30;100.00;99747.09;4904299;29;20066;-79
2023/01/19 04:43:23;;;;;;;8.98;7.00;;;;;;;1.28;100.00;99756.56;4930410;28;20039;-79
2023/01/19 04:45:50;;;;;;;10.05;6.57;;;;;;;1.26;100.00;99754.78;4939971;29;20054;-81
2023/01/19 04:48:18;;;;;;;12.00;6.75;;;;;;;1.24;100.00;99759.94;4933571;29;20055;-79
2023/01/19 04:50:50;;;;;;;11.70;6.97;;;;;;;1.22;100.00;99764.22;4908916;29;20880;-80
2023/01/19 04:53:18;;;;;;;10.38;6.90;;;;;;;1.17;100.00;99774.50;4918131;29;20055;-80
2023/01/19 04:55:45;;;;;;;10.38;7.20;;;;;;;1.15;100.00;99778.78;4886493;29;20532;-80
2023/01/19 04:58:13;;;;;;;12.27;8.23;;;;;;;1.12;100.00;99785.59;4932654;29;20059;-80
2023/01/19 05:00:41;;;;;;;12.05;6.90;;;;;;;1.06;100.00;99781.13;4939060;28;20062;-79
2023/01/19 05:03:08;;;;;;;9.70;6.88;;;;;;;1.02;100.00;99789.69;4898140;29;20055;-80
2023/01/19 05:05:36;;;;;;;12.25;7.65;;;;;;;1.00;100.00;99793.94;4937114;28;20055;-80
2023/01/19 05:08:03;;;;;;;9.07;7.03;;;;;;;0.99;100.00;99786.16;4908223;28;20058;-80
2023/01/19 05:10:30;;;;;;;12.75;8.80;;;;;;;0.97;100.00;99792.16;4877395;28;20064;-79
2023/01/19 05:12:58;;;;;;;13.98;9.55;;;;;;;0.97;100.00;99796.47;4930821;29;20051;-80
2023/01/19 05:15:26;;;;;;;16.45;8.63;;;;;;;0.97;100.00;99802.53;4929666;29;20535;-80
2023/01/19 05:17:55;;;;;;;13.23;8.85;;;;;;;0.95;100.00;99801.63;4918935;29;20044;-80
2023/01/19 05:20:23;;;;;;;14.23;9.60;;;;;;;0.95;100.00;99795.56;4924175;29;20048;-80
2023/01/19 05:22:52;;;;;;;18.00;10.55;;;;;;;0.94;100.00;99793.78;4912152;29;20054;-80
2023/01/19 05:25:19;;;;;;;16.80;8.95;;;;;;;0.93;100.00;99790.34;4938122;29;20059;-80
2023/01/19 05:27:46;;;;;;;16.50;9.27;;;;;;;0.91;100.00;99794.59;4884580;29;20059;-80
2023/01/19 05:30:14;;;;;;;16.27;10.15;;;;;;;0.91;100.00;99804.13;4924349;28;20054;-79
2023/01/19 05:32:41;;;;;;;12.77;8.50;;;;;;;0.88;100.00;99811.81;4944646;29;20043;-82
2023/01/19 05:35:09;;;;;;;12.32;8.05;;;;;;;0.87;100.00;99808.34;4932702;28;20062;-79
2023/01/19 05:37:36;;;;;;;15.40;7.93;;;;;;;0.88;100.00;99819.59;4949516;28;20050;-79
2023/01/19 05:40:05;;;;;;;14.80;9.13;;;;;;;0.89;100.00;99822.22;4969209;28;20054;-80
2023/01/19 05:42:33;;;;;;;15.27;8.50;;;;;;;0.91;100.00;99817.94;4923408;28;20058;-80
2023/01/19 05:45:00;;;;;;;13.00;8.38;;;;;;;0.93;100.00;99818.00;4925592;29;20055;-80
2023/01/19 05:47:29;;;;;;;14.10;7.75;;;;;;;0.94;100.00;99820.59;4923313;29;20051;-82
2023/01/19 05:49:57;;;;;;;15.15;8.60;;;;;;;0.95;100.00;99824.09;4950772;28;20054;-82
2023/01/19 05:52:24;;;;;;;16.70;9.00;;;;;;;0.94;100.00;99825.78;4924448;28;20055;-79
2023/01/19 05:54:53;;;;;;;14.73;8.35;;;;;;;0.93;100.00;99834.44;4949725;28;20054;-82
2023/01/19 05:57:21;;;;;;;12.80;8.50;;;;;;;0.91;100.00;99827.47;4941708;28;20046;-83
2023/01/19 05:59:49;;;;;;;16.35;8.27;;;;;;;0.88;100.00;99836.03;4908036;29;20050;-81
2023/01/19 06:02:16;;;;;;;19.98;7.90;;;;;;;0.87;100.00;99843.75;4906859;28;20070;-82
2023/01/19 06:04:45;;;;;;;13.30;7.85;;;;;;;0.87;100.00;99841.16;4913426;28;20058;-82
2023/01/19 06:07:12;;;;;;;13.20;8.07;;;;;;;0.85;100.00;99853.22;4935599;28;20055;-81
2023/01/19 06:09:39;;;;;;;18.20;7.78;;;;;;;0.84;100.00;99852.34;4952808;28;20066;-82
2023/01/19 06:12:07;;;;;;;19.50;7.80;;;;;;;0.82;100.00;99853.16;4952786;28;20050;-81
2023/01/19 06:14:36;;;;;;;13.85;7.50;;;;;;;0.80;100.00;99854.84;4896880;28;20051;-82
2023/01/19 06:17:05;;;;;;;12.60;7.85;;;;;;;0.77;100.00;99848.69;4940875;28;20512;-81
2023/01/19 06:19:33;;;;;;;12.52;6.80;;;;;;;0.77;100.00;99853.00;4966205;28;20054;-82
2023/01/19 06:22:01;;;;;;;9.80;5.47;;;;;;;0.79;100.00;99861.72;4929501;29;20058;-81
2023/01/19 06:24:29;;;;;;;14.85;5.60;;;;;;;0.80;100.00;99860.88;4931623;28;20520;-81
2023/01/19 06:26:56;;;;;;;7.78;5.25;;;;;;;0.81;100.00;99877.31;4960146;28;20051;-82
2023/01/19 06:29:24;;;;;;;7.43;4.00;;;;;;;0.86;100.00;99874.00;4908129;28;20070;-82
2023/01/19 06:31:53;;;;;;;7.82;4.20;;;;;;;0.89;100.00;99879.28;4932631;29;20051;-82
2023/01/19 06:34:20;;;;;;;12.52;4.32;;;;;;;0.93;100.00;99894.09;4904249;29;20063;-83
2023/01/19 06:36:49;;;;;;;15.48;4.22;;;;;;;1.00;100.00;99905.50;4916408;28;20047;-82
2023/01/19 06:39:16;;;;;;;4.03;3.03;;;;;;;1.04;100.00;99888.28;4934509;28;20051;-82
2023/01/19 06:41:44;;;;;;;16.00;3.65;;;;;;;1.10;100.00;99883.28;4933094;29;20051;-82
2023/01/19 06:44:11;;;;;;;9.82;3.28;;;;;;;1.15;100.00;99886.84;4895626;28;20043;-80
2023/01/19 06:46:39;;;;;;;9.10;3.25;;;;;;;1.17;100.00;99886.09;4902007;29;20059;-80
2023/01/19 06:49:06;;;;;;;12.20;3.85;;;;;;;1.19;100.00;99890.41;4903373;29;20047;-82
2023/01/19 06:51:34;;;;;;;5.82;3.10;;;;;;;1.20;100.00;99889.59;4909743;29;20048;-81
2023/01/19 06:54:01;;;;;;;8.52;3.05;;;;;;;1.17;100.00;99895.56;4938811;28;20047;-82
2023/01/19 06:56:29;;;;;;;10.27;3.53;;;;;;;1.14;100.00;99893.78;4925621;29;20058;-82
2023/01/19 06:58:56;;;;;;;9.70;4.18;;;;;;;1.12;100.00;99899.78;4894475;29;20043;-82
2023/01/19 07:01:24;;;;;;;12.15;3.60;;;;;;;1.10;100.00;99909.25;4917953;28;20061;-82
2023/01/19 07:03:53;;;;;;;13.23;3.92;;;;;;;1.07;100.00;99899.63;4926657;28;20067;-82
2023/01/19 07:06:20;;;;;;;8.60;3.35;;;;;;;1.06;100.00;99917.75;4918084;29;20043;-81
2023/01/19 07:08:48;;;;;;;9.10;2.97;;;;;;;1.04;100.00;99915.16;4923992;29;20389;-82
2023/01/19 07:11:15;;;;;;;6.53;2.72;;;;;;;1.04;100.00;99919.44;4936705;28;20051;-81
2023/01/19 07:13:56;;;;;;;9.52;2.80;;;;;;;1.04;100.00;99919.44;4925109;28;20047;-81
2023/01/19 07:16:24;;;;;;;7.45;2.42;;;;;;;1.05;100.00;99929.84;4875054;29;20055;-81
2023/01/19 07:18:53;;;;;;;3.42;1.95;;;;;;;1.05;100.00;99927.25;4909653;29;20417;-81
2023/01/19 07:21:20;;;;;;;10.70;2.10;;;;;;;1.07;100.00;99930.78;4914009;29;20054;-81
2023/01/19 07:23:50;;;;;;;6.20;1.75;;;;;;;1.09;100.00;99948.97;4938994;29;20051;-80
2023/01/19 07:26:19;;;;;;;5.35;1.67;;;;;;;1.14;100.00;99962.97;4938014;28;20055;-80
2023/01/19 07:28:48;;;;;;;9.18;2.42;;;;;;;1.22;100.00;99970.97;4905244;28;20512;-82
2023/01/19 07:31:16;;;;;;;15.95;2.22;;;;;;;1.33;100.00;99980.78;4941314;28;20047;-82
2023/01/19 07:33:45;;;;;;;8.82;1.70;;;;;;;1.44;100.00;99982.81;4895978;29;20741;-81
2023/01/19 07:36:18;;;;;;;10.02;1.90;;;;;;;1.53;100.00;99986.50;4933594;28;20059;-80
2023/01/19 07:38:46;;;;;;;5.15;1.40;;;;;;;1.60;100.00;99971.06;4947950;29;20058;-80
2023/01/19 07:41:14;;;;;;;7.00;1.48;;;;;;;1.64;100.00;99976.38;4915779;29;20054;-81
2023/01/19 07:43:41;;;;;;;12.93;1.95;;;;;;;1.70;100.00;99973.06;4934971;28;20051;-80
2023/01/19 07:46:08;;;;;;;12.05;1.63;;;;;;;1.74;100.00;99975.78;4960119;28;20081;-81
2023/01/19 07:48:36;;;;;;;6.40;1.33;;;;;;;1.78;100.00;99992.31;4922778;28;20043;-81
2023/01/19 07:51:05;;;;;;;13.95;1.90;;;;;;;1.82;100.00;99996.75;4929605;29;20047;-82
2023/01/19 07:53:33;;;;;;;9.02;1.70;;;;;;;1.86;100.00;100005.50;4956973;28;20055;-81
2023/01/19 07:56:02;;;;;;;8.80;1.77;;;;;;;1.90;100.00;100004.72;4950606;28;20055;-81
2023/01/19 07:58:29;;;;;;;7.55;2.03;;;;;;;1.95;100.00;99997.94;4926935;29;20054;-81
2023/01/19 08:00:56;;;;;;;8.18;2.05;;;;;;;2.02;100.00;100014.53;4933486;29;20062;-81
2023/01/19 08:03:24;;;;;;;11.43;1.80;;;;;;;2.06;100.00;100012.06;4900096;28;20051;-81
2023/01/19 08:05:52;;;;;;;8.23;1.45;;;;;;;2.10;100.00;100007.81;4939150;28;20722;-82
2023/01/19 08:08:19;;;;;;;10.68;1.90;;;;;;;2.15;100.00;100016.59;4942052;28;20043;-82
2023/01/19 08:10:49;;;;;;;7.50;2.22;;;;;;;2.21;100.00;100021.06;4941259;28;20051;-82
2023/01/19 08:13:18;;;;;;;9.60;2.10;;;;;;;2.24;100.00;100018.53;4925995;29;20070;-81
2023/01/19 08:15:53;;;;;;;7.15;1.27;;;;;;;2.25;100.00;100035.88;4934926;28;20063;-83
2023/01/19 08:18:20;;;;;;;9.25;2.50;;;;;;;2.25;100.00;100030.69;4910321;28;20078;-80
2023/01/19 08:20:48;;;;;;;9.77;1.70;;;;;;;2.27;100.00;100042.00;4913648;29;20055;-81
2023/01/19 08:23:16;;;;;;;11.60;2.17;;;;;;;2.29;100.00;100036.00;4930818;28;20043;-80
2023/01/19 08:25:44;;;;;;;13.40;1.83;;;;;;;2.36;100.00;100052.59;4924543;29;20047;-81
2023/01/19 08:28:14;;;;;;;8.40;1.83;;;;;;;2.41;100.00;100045.81;4928662;29;20154;-80
2023/01/19 08:30:43;;;;;;;11.68;2.22;;;;;;;2.45;100.00;100054.56;4934267;28;20450;-81
2023/01/19 08:33:12;;;;;;;10.32;2.08;;;;;;;2.51;100.00;100062.50;4904321;29;21814;-81
2023/01/19 08:35:41;;;;;;;10.27;2.65;;;;;;;2.55;100.00;100066.91;4917445;29;20056;-81
2023/01/19 08:38:09;;;;;;;18.67;2.53;;;;;;;2.56;100.00;100060.88;4923096;29;20051;-81
2023/01/19 08:40:40;;;;;;;12.63;2.50;;;;;;;2.56;100.00;100073.91;4922790;29;20047;-81
2023/01/19 08:43:14;;;;;;;16.67;2.05;;;;;;;2.56;100.00;100081.69;4944221;29;20062;-82
2023/01/19 08:45:47;;;;;;;15.27;2.22;;;;;;;2.54;100.00;100080.78;4927464;29;20047;-80
2023/01/19 08:48:18;;;;;;;9.98;2.42;;;;;;;2.52;100.00;100085.94;4933910;29;20050;-82
2023/01/19 08:50:46;;;;;;;7.70;1.55;;;;;;;2.50;100.00;100085.03;4918888;29;20063;-81
2023/01/19 08:53:14;;;;;;;12.73;1.73;;;;;;;2.52;100.00;100096.34;4938611;28;20054;-81
2023/01/19 08:55:43;;;;;;;7.75;1.85;;;;;;;2.50;100.00;100097.16;4940518;29;20369;-80
2023/01/19 08:58:12;;;;;;;9.70;1.70;;;;;;;2.49;100.00;100103.19;4905576;29;20056;-81
2023/01/19 09:00:40;;;;;;;10.63;1.30;;;;;;;2.45;100.00;100102.25;4912714;29;20048;-81
2023/01/19 09:03:10;;;;;;;4.05;1.42;;;;;;;2.45;100.00;100098.78;4935057;28;20054;-81
2023/01/19 09:05:39;;;;;;;7.28;1.50;;;;;;;2.44;100.00;100102.19;4920117;29;20066;-82
2023/01/19 09:08:09;;;;;;;4.78;1.42;;;;;;;2.42;100.00;100104.78;4928992;29;20052;-81
2023/01/19 09:10:38;;;;;;;13.32;1.55;;;;;;;2.44;100.00;100102.19;4934817;28;20060;-81
2023/01/19 09:13:09;;;;;;;8.52;1.67;;;;;;;2.47;100.00;100110.97;4934830;29;20055;-82
2023/01/19 09:15:38;;;;;;;3.42;1.20;;;;;;;2.52;100.00;100117.16;4940824;29;20051;-82
2023/01/19 09:18:12;;;;;;;8.45;2.10;;;;;;;2.59;100.00;100123.41;4928120;29;20047;-83
2023/01/19 09:20:41;;;;;;;5.45;1.70;;;;;;;2.66;100.00;100120.06;4899848;29;20055;-81
2023/01/19 09:23:11;;;;;;;9.90;1.27;;;;;;;2.74;100.00;100125.44;4908493;29;20047;-79
2023/01/19 09:25:40;;;;;;;4.40;1.30;;;;;;;2.83;100.00;100135.22;4924647;28;20067;-80
2023/01/19 09:28:09;;;;;;;4.97;1.70;;;;;;;2.90;100.00;100132.78;4916623;29;20051;-80
2023/01/19 09:30:38;;;;;;;7.13;1.38;;;;;;;3.01;100.00;100138.22;4934200;28;20058;-81
2023/01/19 09:33:14;;;;;;;7.90;1.25;;;;;;;3.10;100.00;100134.94;4937261;28;20073;-79
2023/01/19 09:35:44;;;;;;;15.10;1.73;;;;;;;3.20;100.00;100147.31;4917690;28;20409;-81
2023/01/19 09:38:14;;;;;;;11.45;2.05;;;;;;;3.31;100.00;100143.22;4953855;28;20047;-80
2023/01/19 09:40:42;;;;;;;8.23;1.80;;;;;;;3.42;100.00;100155.59;4956426;28;20042;-80
2023/01/19 09:43:17;;;;;;;10.77;2.08;;;;;;;3.48;100.00;100154.00;4947185;28;20592;-80
2023/01/19 09:45:56;;;;;;;10.23;1.92;;;;;;;3.51;100.00;100167.06;4947440;28;20058;-79
2023/01/19 09:48:50;;;;;;;8.35;1.95;;;;;;;3.51;100.00;100161.88;4936338;28;20046;-82
2023/01/19 09:51:24;;;;;;;9.68;2.80;;;;;;;3.51;100.00;100171.41;4912356;28;22229;-80
2023/01/19 09:54:01;;;;;;;15.02;2.20;;;;;;;3.50;100.00;100167.94;4944175;28;20062;-80
2023/01/19 09:56:29;;;;;;;15.98;2.25;;;;;;;3.45;100.00;100169.56;4916800;28;20077;-80
2023/01/19 09:58:58;;;;;;;11.10;1.83;;;;;;;3.41;100.00;100174.69;4951073;28;20058;-81
2023/01/19 10:02:13;;;;;;;11.05;2.00;;;;;;;3.35;100.00;100182.38;4930765;28;20050;-81
2023/01/19 10:04:42;;;;;;;15.57;2.50;;;;;;;3.30;100.00;100184.84;4913382;29;20060;-81
2023/01/19 10:07:34;;;;;;;10.95;2.17;;;;;;;3.25;100.00;100189.06;4900280;28;20062;-81
2023/01/19 10:10:21;;;;;;;9.70;1.90;;;;;;;3.22;100.00;100189.03;4937126;28;20043;-81
2023/01/19 10:13:08;;;;;;;9.85;2.15;;;;;;;3.19;100.00;100191.56;4936116;28;20063;-80
2023/01/19 10:15:55;;;;;;;9.88;1.80;;;;;;;3.17;100.00;100196.72;4948492;28;20047;-80
2023/01/19 10:18:34;;;;;;;11.38;2.33;;;;;;;3.20;100.00;100198.53;4946054;28;23016;-82
2023/01/19 10:21:12;;;;;;;9.00;2.08;;;;;;;3.23;100.00;100204.69;4941500;28;20047;-82
2023/01/19 10:23:47;;;;;;;9.60;2.13;;;;;;;3.31;100.00;100210.06;4912023;29;20051;-83
2023/01/19 10:26:23;;;;;;;7.95;1.77;;;;;;;3.39;100.00;100211.09;4915304;28;20776;-82
2023/01/19 10:28:56;;;;;;;14.43;2.50;;;;;;;3.45;100.00;100205.16;4947144;28;20043;-79
2023/01/19 10:31:24;;;;;;;13.65;2.08;;;;;;;3.52;100.00;100209.66;4941313;28;20051;-80
2023/01/19 10:33:52;;;;;;;8.63;1.60;;;;;;;3.59;100.00;100205.44;4944033;28;20043;-80
2023/01/19 10:36:39;;;;;;;23.05;2.97;;;;;;;3.67;100.00;100209.09;4921651;28;20051;-81
2023/01/19 10:39:14;;;;;;;15.70;2.45;;;;;;;3.75;100.00;100217.94;4922019;28;20050;-82
2023/01/19 10:41:43;;;;;;;11.55;2.25;;;;;;;3.83;100.00;100212.91;4942701;28;20042;-81
2023/01/19 10:44:11;;;;;;;13.98;2.28;;;;;;;3.92;100.00;100214.81;4954577;28;20044;-80
2023/01/19 10:46:47;;;;;;;12.40;3.40;;;;;;;4.00;100.00;100219.31;4948833;28;20059;-81
2023/01/19 10:49:30;;;;;;;5.97;1.65;;;;;;;4.06;100.00;100213.34;4961887;28;20035;-81
2023/01/19 10:52:00;;;;;;;10.05;2.30;;;;;;;4.10;100.00;100225.59;4937782;28;20047;-80
2023/01/19 10:54:30;;;;;;;17.80;2.80;;;;;;;4.14;100.00;100216.09;4945543;28;20039;-81
2023/01/19 10:57:05;;;;;;;7.97;2.13;;;;;;;4.17;100.00;100222.25;4941468;28;20067;-83
2023/01/19 10:59:35;;;;;;;12.02;2.03;;;;;;;4.22;100.00;100230.19;4942248;28;20050;-80
2023/01/19 11:02:12;;;;;;;15.00;2.55;;;;;;;4.27;100.00;100229.41;4961691;28;20059;-82
2023/01/19 11:04:40;;;;;;;10.90;2.10;;;;;;;4.30;100.00;100232.06;4958987;28;20148;-82
2023/01/19 11:07:19;;;;;;;13.90;3.05;;;;;;;4.37;100.00;100227.84;4947023;28;20050;-81
2023/01/19 11:09:47;;;;;;;10.65;2.45;;;;;;;4.38;100.00;100226.13;4920558;28;20047;-81
2023/01/19 11:12:21;;;;;;;7.45;2.30;;;;;;;4.41;100.00;100232.28;4946628;28;20062;-80
2023/01/19 11:14:50;;;;;;;5.15;1.58;;;;;;;4.44;100.00;100232.34;4943559;28;20530;-80
2023/01/19 11:17:24;;;;;;;9.20;1.77;;;;;;;4.47;100.00;100234.13;4951117;28;20062;-82
2023/01/19 11:19:56;;;;;;;12.30;1.90;;;;;;;4.53;100.00;100226.38;4936998;28;20054;-81
2023/01/19 11:22:31;;;;;;;9.52;1.52;;;;;;;4.54;100.00;100233.38;4939472;28;20055;-82
2023/01/19 11:25:02;;;;;;;9.90;1.80;;;;;;;4.56;100.00;100238.63;4937721;28;20487;-82
2023/01/19 11:27:31;;;;;;;;;;;;;;;4.55;100.00;100240.34;4952319;28;20062;-81
2023/01/19 11:30:09;;;;;;;10.40;2.40;;;;;;;4.58;100.00;100235.19;4938572;28;20680;-81
2023/01/19 11:32:36;;;;;;;9.68;1.60;;;;;;;4.60;100.00;100246.53;4946438;28;20048;-81
2023/01/19 11:35:32;;;;;;;4.97;1.30;;;;;;;4.62;100.00;100238.72;4956368;28;20424;-81
2023/01/19 11:38:12;;;;;;;9.85;1.70;;;;;;;4.63;100.00;100249.22;4943556;28;20058;-83
2023/01/19 11:40:40;;;;;;;5.30;1.35;;;;;;;4.66;100.00;100249.25;4926831;28;20047;-83
2023/01/19 11:43:14;;;;;;;6.35;1.60;;;;;;;4.68;100.00;100247.53;4940673;28;20047;-83
2023/01/19 11:45:43;;;;;;;12.68;2.47;;;;;;;4.74;100.00;100251.09;4924778;29;20055;-81
2023/01/19 11:48:22;;;;;;;14.30;2.00;;;;;;;4.78;100.00;100255.53;4930089;29;20421;-81
2023/01/19 11:50:49;;;;;;;12.52;2.20;;;;;;;4.80;100.00;100251.22;4940733;29;20063;-82
2023/01/19 11:53:27;;;;;;;7.38;1.48;;;;;;;4.83;100.00;100252.13;4914652;29;20047;-82